createdAt,value
2018-12-14T00:02:16.260Z,32.07
2018-12-14T00:05:18.013Z,31.77
2018-12-14T00:07:51.522Z,35.43
2018-12-14T00:10:23.147Z,34.47
2018-12-14T00:13:00.233Z,35.17
2018-12-14T00:15:30.772Z,36.23
2018-12-14T00:18:00.585Z,35.07
2018-12-14T00:20:30.534Z,39.23
2018-12-14T00:23:06.410Z,34.87
2018-12-14T00:25:40.427Z,39.13
2018-12-14T00:28:11.705Z,39.53
2018-12-14T00:30:42.059Z,38.10
2018-12-14T00:33:20.901Z,44.10
2018-12-14T00:35:58.139Z,39.30
2018-12-14T00:39:14.878Z,40.30
2018-12-14T00:45:32.516Z,41.57
2018-12-14T00:48:04.771Z,40.00
2018-12-14T00:50:34.486Z,38.63
2018-12-14T00:53:13.521Z,40.20
2018-12-14T00:55:47.647Z,36.87
2018-12-14T00:58:25.116Z,45.37
2018-12-14T01:00:56.906Z,43.67
2018-12-14T01:03:35.381Z,41.77
2018-12-14T01:06:07.438Z,45.93
2018-12-14T01:08:38.602Z,40.73
2018-12-14T01:11:09.949Z,43.40
2018-12-14T01:13:45.985Z,45.23
2018-12-14T01:16:16.309Z,47.60
2018-12-14T01:18:48.588Z,45.83
2018-12-14T01:21:19.250Z,50.17
2018-12-14T01:23:50.194Z,45.63
2018-12-14T01:26:23.372Z,47.57
2018-12-14T01:28:54.180Z,79.67
2018-12-14T01:31:25.082Z,54.27
2018-12-14T01:34:01.532Z,45.43
2018-12-14T01:36:45.841Z,48.23
2018-12-14T01:39:27.618Z,48.37
2018-12-14T01:42:05.005Z,47.87
2018-12-14T01:44:35.556Z,54.17
2018-12-14T01:47:09.624Z,49.57
2018-12-14T01:49:39.592Z,49.47
2018-12-14T01:52:16.501Z,45.10
2018-12-14T01:54:50.635Z,51.73
2018-12-14T01:57:23.492Z,52.00
2018-12-14T02:00:05.388Z,47.73
2018-12-14T02:02:43.610Z,47.77
2018-12-14T02:05:15.365Z,48.80
2018-12-14T02:07:45.366Z,48.80
2018-12-14T02:10:15.041Z,48.10
2018-12-14T02:12:58.987Z,48.73
2018-12-14T02:15:35.158Z,48.30
2018-12-14T02:18:06.291Z,51.13
2018-12-14T02:20:35.903Z,47.23
2018-12-14T02:23:09.425Z,48.70
2018-12-14T02:25:42.197Z,50.17
2018-12-14T02:28:11.793Z,47.57
2018-12-14T02:30:45.820Z,46.57
2018-12-14T02:33:24.219Z,46.67
2018-12-14T02:35:55.836Z,50.20
2018-12-14T02:38:26.990Z,45.57
2018-12-14T02:41:01.044Z,46.77
2018-12-14T02:43:36.839Z,51.57
2018-12-14T02:46:06.346Z,46.03
2018-12-14T02:48:35.888Z,46.00
2018-12-14T02:51:06.419Z,46.27
2018-12-14T02:53:39.718Z,45.43
2018-12-14T02:56:10.106Z,47.30
2018-12-14T02:58:40.574Z,47.73
2018-12-14T03:01:11.055Z,45.77
2018-12-14T03:03:44.529Z,51.10
2018-12-14T03:06:14.766Z,46.73
2018-12-14T03:08:44.492Z,46.97
2018-12-14T03:11:22.199Z,47.80
2018-12-14T03:14:05.519Z,44.20
2018-12-14T03:16:35.845Z,45.77
2018-12-14T03:19:10.229Z,47.33
2018-12-14T03:21:40.818Z,49.07
2018-12-14T03:24:11.055Z,42.13
2018-12-14T03:26:41.478Z,47.90
2018-12-14T03:29:12.137Z,43.93
2018-12-14T03:31:42.540Z,43.50
2018-12-14T03:34:14.842Z,46.70
2018-12-14T03:36:44.687Z,44.80
2018-12-14T03:39:15.873Z,45.10
2018-12-14T03:41:56.994Z,42.90
2018-12-14T03:44:29.681Z,43.57
2018-12-14T03:47:08.346Z,48.00
2018-12-14T03:49:38.877Z,45.23
2018-12-14T03:52:13.975Z,42.23
2018-12-14T03:54:43.562Z,47.07
2018-12-14T03:57:13.333Z,46.83
2018-12-14T03:59:42.969Z,41.00
2018-12-14T04:02:21.841Z,41.97
2018-12-14T04:11:11.261Z,45.03
2018-12-14T04:13:53.243Z,47.77
2018-12-14T04:16:24.315Z,43.83
2018-12-14T04:18:54.023Z,44.17
2018-12-14T04:21:24.823Z,49.33
2018-12-14T04:23:58.355Z,46.80
2018-12-14T04:26:28.534Z,48.43
2018-12-14T04:29:24.161Z,42.90
2018-12-14T04:32:01.962Z,45.67
2018-12-14T04:34:34.810Z,45.47
2018-12-14T04:37:04.464Z,44.77
2018-12-14T04:39:36.459Z,45.63
2018-12-14T04:42:10.984Z,48.10
2018-12-14T04:44:41.140Z,48.37
2018-12-14T04:47:12.412Z,49.87
2018-12-14T04:49:44.453Z,44.33
2018-12-14T04:52:26.881Z,48.63
2018-12-14T04:55:03.659Z,49.83
2018-12-14T04:57:33.710Z,48.40
2018-12-14T05:00:05.693Z,42.10
2018-12-14T05:02:41.364Z,42.40
2018-12-14T05:05:12.225Z,41.43
2018-12-14T05:07:41.832Z,45.97
2018-12-14T05:10:11.496Z,44.33
2018-12-14T05:12:55.871Z,39.37
2018-12-14T05:15:21.995Z,41.87
2018-12-14T05:17:56.863Z,40.53
2018-12-14T05:20:27.980Z,43.73
2018-12-14T05:23:03.501Z,39.33
2018-12-14T05:25:32.955Z,44.77
2018-12-14T05:28:02.495Z,44.90
2018-12-14T05:30:33.325Z,45.53
2018-12-14T05:33:09.820Z,41.33
2018-12-14T05:35:39.637Z,45.77
2018-12-14T05:38:09.446Z,45.30
2018-12-14T05:40:39.294Z,38.23
2018-12-14T05:43:15.020Z,40.67
2018-12-14T05:45:44.662Z,41.77
2018-12-14T05:48:15.130Z,46.23
2018-12-14T05:50:45.016Z,41.37
2018-12-14T05:53:34.192Z,60.80
2018-12-14T05:56:09.462Z,39.80
2018-12-14T05:58:39.164Z,43.27
2018-12-14T06:01:08.931Z,44.10
2018-12-14T06:03:42.257Z,42.07
2018-12-14T06:06:12.064Z,41.00
2018-12-14T06:08:41.576Z,46.33
2018-12-14T06:11:11.487Z,45.20
2018-12-14T06:13:46.652Z,44.10
2018-12-14T06:16:16.947Z,39.63
2018-12-14T06:18:47.333Z,43.60
2018-12-14T06:21:19.503Z,41.93
2018-12-14T06:23:51.621Z,47.97
2018-12-14T06:26:21.445Z,45.23
2018-12-14T06:28:50.939Z,45.37
2018-12-14T06:31:21.438Z,45.20
2018-12-14T06:33:56.504Z,46.57
2018-12-14T06:36:27.354Z,48.73
2018-12-14T06:38:57.264Z,46.83
2018-12-14T06:41:28.870Z,48.43
2018-12-14T06:44:02.641Z,48.37
2018-12-14T06:46:32.105Z,45.70
2018-12-14T06:49:02.503Z,45.80
2018-12-14T06:51:33.106Z,48.77
2018-12-14T06:54:08.231Z,42.90
2018-12-14T06:56:47.340Z,44.33
2018-12-14T06:59:21.851Z,48.17
2018-12-14T07:01:55.009Z,44.97
2018-12-14T07:04:24.998Z,46.00
2018-12-14T07:06:55.250Z,46.60
2018-12-14T07:09:26.157Z,53.90
2018-12-14T07:11:59.380Z,51.37
2018-12-14T07:14:28.882Z,53.30
2018-12-14T07:17:00.001Z,56.10
2018-12-14T07:19:30.677Z,49.03
2018-12-14T07:22:06.551Z,53.23
2018-12-14T07:24:35.930Z,46.73
2018-12-14T07:27:05.484Z,49.37
2018-12-14T07:29:38.827Z,45.67
2018-12-14T07:32:14.323Z,45.10
2018-12-14T07:34:45.055Z,50.30
2018-12-14T07:37:14.730Z,46.67
2018-12-14T07:39:45.731Z,46.90
2018-12-14T07:42:30.347Z,47.37
2018-12-14T07:45:15.197Z,50.80
2018-12-14T07:47:49.380Z,47.20
2018-12-14T07:50:24.872Z,47.27
2018-12-14T07:53:10.242Z,52.00
2018-12-14T07:56:59.693Z,44.37
2018-12-14T07:59:35.261Z,45.80
2018-12-14T08:02:10.616Z,52.57
2018-12-14T08:04:41.190Z,51.30
2018-12-14T08:07:12.018Z,49.73
2018-12-14T08:09:45.909Z,51.87
2018-12-14T08:12:38.575Z,52.30
2018-12-14T08:15:11.399Z,43.33
2018-12-14T08:17:43.175Z,47.43
2018-12-14T08:20:17.208Z,51.27
2018-12-14T08:26:27.871Z,45.70
2018-12-14T08:29:14.686Z,43.27
2018-12-14T08:32:18.263Z,66.50
2018-12-14T08:35:11.760Z,54.13
2018-12-14T08:37:50.603Z,45.27
2018-12-14T08:43:41.638Z,45.53
2018-12-14T08:46:29.137Z,41.23
2018-12-14T08:48:58.323Z,49.20
2018-12-14T08:51:28.161Z,48.73
2018-12-14T08:54:25.262Z,49.83
2018-12-14T08:57:06.083Z,52.53
2018-12-14T09:03:35.986Z,47.00
2018-12-14T09:06:26.276Z,47.13
2018-12-14T09:15:47.782Z,50.67
2018-12-14T09:28:00.465Z,42.10
2018-12-14T09:31:01.440Z,45.57
2018-12-14T09:33:53.951Z,49.03
2018-12-14T09:36:25.581Z,47.57
2018-12-14T09:38:55.544Z,47.00
2018-12-14T09:41:33.066Z,46.20
2018-12-14T09:44:23.316Z,45.30
2018-12-14T09:46:59.891Z,49.17
2018-12-14T09:49:43.393Z,49.97
2018-12-14T09:52:37.026Z,41.90
2018-12-14T09:55:11.751Z,43.07
2018-12-14T09:57:42.723Z,41.63
2018-12-14T10:00:24.217Z,41.87
2018-12-14T10:03:04.304Z,41.77
2018-12-14T10:05:38.540Z,39.33
2018-12-14T10:08:16.155Z,43.33
2018-12-14T10:11:02.848Z,42.43
2018-12-14T10:13:35.803Z,44.73
2018-12-14T10:16:08.415Z,41.83
2018-12-14T10:18:39.450Z,40.53
2018-12-14T10:21:09.473Z,42.40
2018-12-14T10:23:53.321Z,45.57
2018-12-14T10:26:23.045Z,44.30
2018-12-14T10:28:54.601Z,41.57
2018-12-14T10:31:25.687Z,45.23
2018-12-14T10:33:59.818Z,40.13
2018-12-14T10:36:30.642Z,45.67
2018-12-14T10:39:35.079Z,42.80
2018-12-14T10:42:15.350Z,45.37
2018-12-14T10:44:46.585Z,40.67
2018-12-14T10:47:18.744Z,46.20
2018-12-14T10:49:48.358Z,39.97
2018-12-14T10:52:25.349Z,43.23
2018-12-14T10:55:09.316Z,44.03
2018-12-14T10:57:56.027Z,45.27
2018-12-14T11:03:40.911Z,42.30
2018-12-14T11:06:12.745Z,40.80
2018-12-14T11:08:49.360Z,43.83
2018-12-14T11:11:22.246Z,46.33
2018-12-14T11:14:02.963Z,43.37
2018-12-14T11:16:34.524Z,40.77
2018-12-14T11:19:12.964Z,46.07
2018-12-14T11:21:51.176Z,39.33
2018-12-14T11:24:29.472Z,46.27
2018-12-14T11:27:06.849Z,45.73
2018-12-14T11:29:38.831Z,40.00
2018-12-14T11:32:42.403Z,40.57
2018-12-14T11:38:57.196Z,40.07
2018-12-14T11:42:01.958Z,39.67
2018-12-14T12:04:15.729Z,39.97
2018-12-14T12:07:00.914Z,42.30
2018-12-14T12:09:35.672Z,33.33
2018-12-14T12:32:12.156Z,36.00
2018-12-14T12:34:45.015Z,39.17
2018-12-14T12:37:15.366Z,36.00
2018-12-14T12:40:01.052Z,42.10
2018-12-14T12:42:36.907Z,42.87
2018-12-14T12:45:09.938Z,43.73
2018-12-14T12:47:47.844Z,40.63
2018-12-14T12:50:26.219Z,39.20
2018-12-14T12:53:08.559Z,37.50
2018-12-14T12:55:42.918Z,40.80
2018-12-14T12:58:17.079Z,41.13
2018-12-14T13:00:48.912Z,36.57
2018-12-14T13:03:29.239Z,40.53
2018-12-14T13:06:04.543Z,42.57
2018-12-14T13:08:40.362Z,39.23
2018-12-14T13:11:16.073Z,32.93
2018-12-14T13:13:53.255Z,38.37
2018-12-14T13:16:26.395Z,36.73
2018-12-14T13:18:56.962Z,37.83
2018-12-14T13:21:27.509Z,39.17
2018-12-14T13:24:12.470Z,35.30
2018-12-14T13:26:43.556Z,36.77
2018-12-14T13:29:14.202Z,38.70
2018-12-14T13:31:47.935Z,36.07
2018-12-14T13:34:18.424Z,41.27
2018-12-14T13:36:49.227Z,37.53
2018-12-14T13:39:21.883Z,37.43
2018-12-14T13:42:05.206Z,36.40
2018-12-14T13:44:38.706Z,36.00
2018-12-14T13:47:11.870Z,43.93
2018-12-14T13:49:43.338Z,38.87
2018-12-14T13:52:23.364Z,37.93
2018-12-14T13:54:54.902Z,65.83
2018-12-14T13:57:29.049Z,37.93
2018-12-14T14:00:03.052Z,42.57
2018-12-14T14:02:41.633Z,44.57
2018-12-14T14:05:18.083Z,41.60
2018-12-14T14:07:50.249Z,43.47
2018-12-14T14:10:20.518Z,37.40
2018-12-14T14:13:02.319Z,41.73
2018-12-14T14:15:32.628Z,42.00
2018-12-14T14:18:05.234Z,40.80
2018-12-14T14:20:36.440Z,42.40
2018-12-14T14:23:10.079Z,46.17
2018-12-14T14:25:42.121Z,41.03
2018-12-14T14:28:12.906Z,44.30
2018-12-14T14:30:44.344Z,39.30
2018-12-14T14:33:19.473Z,41.30
2018-12-14T14:35:49.387Z,44.97
2018-12-14T14:38:19.436Z,43.53
2018-12-14T14:40:50.392Z,44.17
2018-12-14T14:43:23.246Z,44.13
2018-12-14T14:45:53.670Z,48.70
2018-12-14T14:48:23.280Z,47.90
2018-12-14T14:50:59.597Z,41.60
2018-12-14T14:53:32.527Z,48.10
2018-12-14T14:56:02.172Z,47.37
2018-12-14T14:58:32.579Z,43.93
2018-12-14T15:01:01.993Z,47.97
2018-12-14T15:03:37.489Z,47.70
2018-12-14T15:06:08.276Z,51.43
2018-12-14T15:08:42.434Z,50.30
2018-12-14T15:11:12.106Z,47.63
2018-12-14T15:13:50.397Z,51.73
2018-12-14T15:16:22.659Z,48.43
2018-12-14T15:19:30.447Z,54.27
2018-12-14T15:22:18.540Z,51.57
2018-12-14T15:25:14.596Z,53.07
2018-12-14T15:27:46.338Z,50.77
2018-12-14T15:30:18.273Z,53.17
2018-12-14T15:32:55.073Z,59.60
2018-12-14T15:35:27.297Z,54.60
2018-12-14T15:38:00.217Z,57.53
2018-12-14T15:40:35.849Z,55.43
2018-12-14T15:46:23.429Z,53.30
2018-12-14T15:48:54.343Z,53.87
2018-12-14T15:51:25.278Z,46.57
2018-12-14T15:54:18.324Z,52.27
2018-12-14T15:56:50.791Z,57.73
2018-12-14T15:59:21.166Z,54.93
2018-12-14T16:02:02.679Z,56.73
2018-12-14T16:04:33.851Z,52.63
2018-12-14T16:07:07.763Z,57.97
2018-12-14T16:09:40.743Z,53.27
2018-12-14T16:12:26.223Z,55.93
2018-12-14T16:15:00.883Z,61.93
2018-12-14T16:17:30.608Z,58.70
2018-12-14T16:20:03.016Z,54.93
2018-12-14T16:22:59.227Z,59.67
2018-12-14T16:25:36.534Z,52.93
2018-12-14T16:28:08.192Z,58.23
2018-12-14T16:30:38.297Z,50.97
2018-12-14T16:33:22.561Z,57.17
2018-12-14T16:35:59.812Z,62.07
2018-12-14T16:38:34.054Z,60.17
2018-12-14T16:41:11.336Z,52.80
2018-12-14T16:43:45.884Z,54.17
2018-12-14T16:46:17.503Z,58.67
2018-12-14T16:48:50.664Z,54.90
2018-12-14T16:51:29.731Z,58.67
2018-12-14T16:54:10.786Z,62.40
2018-12-14T16:56:55.070Z,52.03
2018-12-14T16:59:26.953Z,55.93
2018-12-14T17:08:30.390Z,58.77
2018-12-14T17:11:08.713Z,54.10
2018-12-14T17:13:44.809Z,62.37
2018-12-14T17:16:19.035Z,64.33
2018-12-14T17:19:02.610Z,58.40
2018-12-14T17:21:35.765Z,59.10
2018-12-14T17:24:21.702Z,71.30
2018-12-14T17:26:57.145Z,61.13
2018-12-14T17:29:40.399Z,65.70
2018-12-14T17:32:15.703Z,61.90
2018-12-14T17:34:52.285Z,62.37
2018-12-14T17:37:28.251Z,61.07
2018-12-14T17:40:08.913Z,67.77
2018-12-14T17:43:02.138Z,61.53
2018-12-14T17:45:39.785Z,66.10
2018-12-14T17:48:13.604Z,67.57
2018-12-14T17:50:54.547Z,61.97
2018-12-14T17:56:38.774Z,62.73
2018-12-14T17:59:45.217Z,76.50
2018-12-14T18:02:59.842Z,63.30
2018-12-14T18:11:52.043Z,63.30
2018-12-14T18:14:37.188Z,66.73
2018-12-14T18:48:48.147Z,73.67
2018-12-14T18:51:26.637Z,73.47
2018-12-14T18:54:10.858Z,73.27
2018-12-14T18:56:56.245Z,66.27
2018-12-14T18:59:38.968Z,107.57
2018-12-14T19:02:31.233Z,66.93
2018-12-14T19:05:03.641Z,74.47
2018-12-14T19:07:38.366Z,67.63
2018-12-14T19:10:22.268Z,74.13
2018-12-14T19:13:21.230Z,69.27
2018-12-14T19:15:59.560Z,77.23
2018-12-14T19:18:53.763Z,71.37
2018-12-14T19:21:25.174Z,129.53
2018-12-14T19:24:21.837Z,72.23
2018-12-14T19:26:58.941Z,77.70
2018-12-14T19:29:42.489Z,77.03
2018-12-14T19:32:32.039Z,68.00
2018-12-14T19:35:08.254Z,68.23
2018-12-14T19:37:41.551Z,70.03
2018-12-14T19:40:20.196Z,79.30
2018-12-14T19:46:11.087Z,70.57
2018-12-14T19:48:42.408Z,75.90
2018-12-14T19:51:17.535Z,67.93
2018-12-14T19:54:13.915Z,73.80
2018-12-14T19:56:52.531Z,75.17
2018-12-14T19:59:31.560Z,67.33
2018-12-14T20:02:20.980Z,74.53
2018-12-14T20:04:58.702Z,73.37
2018-12-14T20:07:32.450Z,73.90
2018-12-14T20:10:08.335Z,70.67
2018-12-14T20:12:58.937Z,73.57
2018-12-14T20:15:37.887Z,66.63
2018-12-14T20:18:11.204Z,66.83
2018-12-14T20:20:43.228Z,80.53
2018-12-14T20:23:24.819Z,78.57
2018-12-14T20:25:56.576Z,73.80
2018-12-14T20:28:29.416Z,80.07
2018-12-14T20:31:00.145Z,70.63
2018-12-14T20:33:36.611Z,74.67
2018-12-14T20:36:08.495Z,76.17
2018-12-14T20:38:41.846Z,75.67
2018-12-14T20:44:30.092Z,71.30
2018-12-14T20:46:59.645Z,72.13
2018-12-14T20:49:52.208Z,70.87
2018-12-14T20:52:29.978Z,71.83
2018-12-14T20:55:03.531Z,77.90
2018-12-14T20:57:33.390Z,78.57
2018-12-14T21:01:48.665Z,70.17
2018-12-14T21:04:23.962Z,75.33
2018-12-14T21:07:29.395Z,80.53
2018-12-14T21:10:00.523Z,78.33
2018-12-14T21:12:36.886Z,72.73
2018-12-14T21:15:15.399Z,76.00
2018-12-14T21:21:17.751Z,72.57
2018-12-14T21:24:07.823Z,68.67
2018-12-14T21:47:31.268Z,74.30
2018-12-14T21:50:02.842Z,76.23
2018-12-14T21:52:48.053Z,67.90
2018-12-14T21:55:21.857Z,71.90
2018-12-14T22:01:22.112Z,69.90
2018-12-14T22:07:13.722Z,75.83
2018-12-14T22:09:58.326Z,65.30
2018-12-14T22:12:45.762Z,74.87
2018-12-14T22:15:21.029Z,71.60
2018-12-14T22:17:56.805Z,67.83
2018-12-14T22:20:27.586Z,70.77
2018-12-14T22:23:06.704Z,70.13
2018-12-14T22:25:39.532Z,65.03
2018-12-14T22:28:16.873Z,73.60
2018-12-14T22:33:57.259Z,70.27
2018-12-14T22:36:28.710Z,70.20
2018-12-14T22:38:58.711Z,73.23
2018-12-14T22:41:41.017Z,67.43
2018-12-14T22:44:21.371Z,72.10
2018-12-14T22:46:52.275Z,68.90
2018-12-14T22:49:22.019Z,70.33
2018-12-14T22:52:01.490Z,65.17
2018-12-14T22:54:35.264Z,65.83
2018-12-14T22:57:07.334Z,68.03
2018-12-14T22:59:37.466Z,74.93
2018-12-14T23:02:07.776Z,67.30
2018-12-14T23:04:44.241Z,64.77
2018-12-14T23:07:15.358Z,70.50
2018-12-14T23:09:45.189Z,71.93
2018-12-14T23:12:22.382Z,66.70
2018-12-14T23:14:52.011Z,68.60
2018-12-14T23:17:38.304Z,65.23
2018-12-14T23:20:09.906Z,68.13
2018-12-14T23:22:56.781Z,63.73
2018-12-14T23:25:34.748Z,65.83
2018-12-14T23:28:07.264Z,63.73
2018-12-14T23:30:39.343Z,62.23
2018-12-14T23:33:25.745Z,72.63
2018-12-14T23:36:03.809Z,55.80
2018-12-14T23:38:37.086Z,67.03
2018-12-14T23:41:07.950Z,61.93
2018-12-14T23:43:56.215Z,62.20
2018-12-14T23:49:26.451Z,66.40
2018-12-14T23:54:57.770Z,55.37
2018-12-14T23:57:53.803Z,51.40
